Airfield :
LOGIN :

Register | Disclaimer

   EN    FR    IT 

 










Legend :    VFR   Marginal VFR   IFR   Intensive IFR   Very Intensive IFR
Visi :
Ceiling :
>= 8 km
>= 3000ft
5 to 8 km
1000 to 3000 ft
1500m to 5 km
500 to 1000 ft
800 to 1500m
200 to 500 ft
< 800m
< 200 ft
Symbols :   Thunderstorms  Fog  Heavy snow  Heavy precipitations  Wind > 20 kt
SIGMETs :     Misc.  Thunderstorms  Icing  Turbulence  Mountain Waves  Volcanic Ashes







- Airport Elevation : 162 ft
- IATA code : BOD
- Download approach charts


LFBD - Bordeaux / Merignac

CURRENT METAR :
  • 270700Z AUTO 25007KT 9999 BKN007 BKN014 OVC023 14/13 Q1017 TEMPO 2000 RADZ OVC004

EXPIRED METARs :
  • 270630Z AUTO 26006KT 230V290 9999 BKN005 OVC012 14/13 Q1017 TEMPO 2000 RADZ
  • 270600Z AUTO 26005KT 4200 BR BKN004 BKN012 OVC033 14/13 Q1017 TEMPO 2000 RADZ
  • 270530Z AUTO 25004KT 9999 BKN004 BKN013 OVC024 13/13 Q1017 TEMPO 2000 RADZ
  • 270500Z AUTO 23003KT 9999 BKN004 OVC014 13/13 Q1017 TEMPO 2000 RADZ BKN006 OVC014
  • 270430Z AUTO 25004KT 9999 BKN004 OVC018 13/13 Q1017 TEMPO 2000 RADZ BKN006 OVC014

TAF TAF LFBD
Valid from the 27 at 06:00 until the 28 at 12:00 UTC


270500Z 2706/2812 28005KT 9999 BKN015 TX19/2715Z TN12/2804Z
TEMPO 2706/2714 4000 RA OVC010
PROB40
TEMPO 2706/2712 2000 RADZ OVC004
BECMG 2712/2714 CAVOK
BECMG 2721/2723 BKN015
BECMG 2808/2810 SCT030
TEMPO 2808/2812 4000 SHRA BKN025TCU
ATIS : +33 5 57 92 81 04
No reported NOTAMs for that airfield.



MET'MAP, your aeronautical weather chart ! - Copyright ORBIFLY December 2007 - Disclaimer

ORBIFLY MET'MAP TEAM :

Programming & Development : Alexandra Zaïnal
Concept & Development : Baudouin d'Aumeries
Co-Development & Prog : Marc-Olivier Méhu
Technical & hardware support : Manuel Goepfert

Contact : metmap@orbifly.com




SOURCES & CREDITS :

   NOAA